createdAt,value
2018-12-18T00:00:18.729Z,41.67
2018-12-18T00:02:22.556Z,39.77
2018-12-18T00:04:27.029Z,60.30
2018-12-18T00:06:31.795Z,59.70
2018-12-18T00:08:35.481Z,58.00
2018-12-18T00:10:49.172Z,56.37
2018-12-18T00:12:53.382Z,62.27
2018-12-18T00:14:57.192Z,74.53
2018-12-18T00:17:05.723Z,55.57
2018-12-18T00:19:11.980Z,63.67
2018-12-18T00:21:21.591Z,69.77
2018-12-18T00:23:25.340Z,61.37
2018-12-18T00:25:34.025Z,47.53
2018-12-18T00:27:43.064Z,45.90
2018-12-18T00:29:58.179Z,62.90
2018-12-18T00:32:04.800Z,57.30
2018-12-18T00:34:13.366Z,75.70
2018-12-18T00:36:17.291Z,74.00
2018-12-18T00:38:21.088Z,80.63
2018-12-18T00:40:30.044Z,80.27
2018-12-18T00:42:39.408Z,79.43
2018-12-18T00:44:42.898Z,80.33
2018-12-18T00:46:46.701Z,69.07
2018-12-18T00:48:51.793Z,72.80
2018-12-18T00:51:00.479Z,78.47
2018-12-18T00:53:09.541Z,77.13
2018-12-18T00:55:15.296Z,71.40
2018-12-18T00:57:21.291Z,78.53
2018-12-18T00:59:25.185Z,75.63
2018-12-18T01:01:29.696Z,79.77
2018-12-18T01:03:33.852Z,86.87
2018-12-18T01:05:37.942Z,85.70
2018-12-18T01:07:53.132Z,78.77
2018-12-18T01:09:53.109Z,82.13
2018-12-18T01:12:01.904Z,87.67
2018-12-18T01:14:05.764Z,81.87
2018-12-18T01:16:14.695Z,94.13
2018-12-18T01:18:24.016Z,65.90
2018-12-18T01:20:28.098Z,88.93
2018-12-18T01:22:37.433Z,86.80
2018-12-18T01:24:42.279Z,74.97
2018-12-18T01:26:51.020Z,83.10
2018-12-18T01:28:59.860Z,86.03
2018-12-18T01:31:05.894Z,87.43
2018-12-18T01:33:15.716Z,62.63
2018-12-18T01:35:24.467Z,76.23
2018-12-18T01:37:33.036Z,87.80
2018-12-18T01:39:37.043Z,87.27
2018-12-18T01:41:41.073Z,91.20
2018-12-18T01:43:44.843Z,100.40
2018-12-18T01:45:48.686Z,71.37
2018-12-18T01:47:57.290Z,60.03
2018-12-18T01:50:06.070Z,72.30
2018-12-18T01:52:11.393Z,84.47
2018-12-18T01:54:14.947Z,74.40
2018-12-18T01:56:25.094Z,64.00
2018-12-18T01:58:33.640Z,70.37
2018-12-18T02:00:38.184Z,68.87
2018-12-18T02:02:42.428Z,81.13
2018-12-18T02:04:51.983Z,79.00
2018-12-18T02:07:01.735Z,74.10
2018-12-18T02:09:11.737Z,57.60
2018-12-18T02:11:20.637Z,82.13
2018-12-18T02:13:29.652Z,42.93
2018-12-18T02:15:33.424Z,76.63
2018-12-18T02:17:37.567Z,75.87
2018-12-18T02:19:41.555Z,68.33
2018-12-18T02:21:46.063Z,51.97
2018-12-18T02:23:55.019Z,79.40
2018-12-18T02:26:01.981Z,83.67
2018-12-18T02:28:12.139Z,97.97
2018-12-18T02:30:17.184Z,92.80
2018-12-18T02:32:26.045Z,65.63
2018-12-18T02:34:30.308Z,62.40
2018-12-18T02:36:40.079Z,72.37
2018-12-18T02:38:48.684Z,73.37
2018-12-18T02:40:52.797Z,71.73
2018-12-18T02:43:01.463Z,58.07
2018-12-18T02:45:08.241Z,76.87
2018-12-18T02:47:22.195Z,54.83
2018-12-18T02:49:31.971Z,87.03
2018-12-18T02:51:41.055Z,73.50
2018-12-18T02:53:50.081Z,70.93
2018-12-18T02:55:59.418Z,73.80
2018-12-18T02:58:11.482Z,72.90
2018-12-18T03:00:18.702Z,57.03
2018-12-18T03:02:27.993Z,54.77
2018-12-18T03:04:32.233Z,48.17
2018-12-18T03:06:36.382Z,77.67
2018-12-18T03:08:45.764Z,64.93
2018-12-18T03:15:35.490Z,53.53
2018-12-18T03:17:39.240Z,59.27
2018-12-18T03:19:42.987Z,51.20
2018-12-18T03:21:47.521Z,46.97
2018-12-18T03:23:52.224Z,67.33
2018-12-18T03:25:55.644Z,66.53
2018-12-18T03:28:04.373Z,56.40
2018-12-18T03:30:13.258Z,59.07
2018-12-18T03:32:20.173Z,70.53
2018-12-18T03:34:28.825Z,92.70
2018-12-18T03:36:37.793Z,91.63
2018-12-18T03:38:41.679Z,64.17
2018-12-18T03:40:45.553Z,60.07
2018-12-18T03:42:49.424Z,65.33
2018-12-18T03:44:58.271Z,83.10
2018-12-18T03:47:06.924Z,78.60
2018-12-18T03:49:11.390Z,87.00
2018-12-18T03:51:15.005Z,57.10
2018-12-18T03:53:23.976Z,61.77
2018-12-18T03:55:28.027Z,72.67
2018-12-18T03:57:31.699Z,69.67
2018-12-18T03:59:41.084Z,85.13
2018-12-18T04:01:50.539Z,71.77
2018-12-18T04:04:01.303Z,51.37
2018-12-18T04:06:10.127Z,45.70
2018-12-18T04:08:14.194Z,80.47
2018-12-18T04:10:22.768Z,65.10
2018-12-18T04:12:26.893Z,54.97
2018-12-18T04:14:30.952Z,51.60
2018-12-18T04:16:39.510Z,54.27
2018-12-18T04:18:48.264Z,63.77
2018-12-18T04:20:52.265Z,70.90
2018-12-18T04:22:56.216Z,49.67
2018-12-18T04:25:05.123Z,66.17
2018-12-18T04:27:13.566Z,51.43
2018-12-18T04:29:22.414Z,42.07
2018-12-18T04:31:26.403Z,60.53
2018-12-18T04:33:35.086Z,47.17
2018-12-18T04:35:43.806Z,42.87
2018-12-18T04:37:52.689Z,53.93
2018-12-18T04:40:01.653Z,52.30
2018-12-18T04:42:07.685Z,42.33
2018-12-18T04:44:16.146Z,42.50
2018-12-18T04:46:22.091Z,57.43
2018-12-18T04:48:26.161Z,42.73
2018-12-18T04:50:29.901Z,52.70
2018-12-18T04:52:38.708Z,43.97
2018-12-18T04:54:47.646Z,50.70
2018-12-18T04:56:51.752Z,48.83
2018-12-18T04:58:55.719Z,38.60
2018-12-18T05:01:04.417Z,45.27
2018-12-18T05:03:13.315Z,41.00
2018-12-18T05:05:17.656Z,39.67
2018-12-18T05:07:21.529Z,46.10
2018-12-18T05:09:30.331Z,45.80
2018-12-18T05:11:39.141Z,42.33
2018-12-18T05:13:43.464Z,48.87
2018-12-18T05:15:47.246Z,65.07
2018-12-18T05:17:51.346Z,49.37
2018-12-18T05:19:59.920Z,46.27
2018-12-18T05:22:06.207Z,49.80
2018-12-18T05:24:15.015Z,45.73
2018-12-18T05:26:23.374Z,46.70
2018-12-18T05:28:32.238Z,59.90
2018-12-18T05:30:36.163Z,55.23
2018-12-18T05:32:40.134Z,47.20
2018-12-18T05:34:44.006Z,41.27
2018-12-18T05:36:47.968Z,50.40
2018-12-18T05:38:57.633Z,47.67
2018-12-18T05:41:02.005Z,50.97
2018-12-18T05:43:06.084Z,56.00
2018-12-18T05:45:09.947Z,42.10
2018-12-18T05:47:18.427Z,42.53
2018-12-18T05:49:22.370Z,63.57
2018-12-18T05:51:32.132Z,53.07
2018-12-18T05:53:36.500Z,47.63
2018-12-18T05:55:45.147Z,67.47
2018-12-18T05:57:53.894Z,44.70
2018-12-18T05:59:57.972Z,41.50
2018-12-18T06:02:03.775Z,40.03
2018-12-18T06:04:07.871Z,43.43
2018-12-18T06:06:11.622Z,42.77
2018-12-18T06:08:15.484Z,40.17
2018-12-18T06:10:24.112Z,41.63
2018-12-18T06:12:28.203Z,40.23
2018-12-18T06:14:36.891Z,40.70
2018-12-18T06:16:40.945Z,48.77
2018-12-18T06:18:44.860Z,39.30
2018-12-18T06:20:53.304Z,34.77
2018-12-18T06:23:03.263Z,35.90
2018-12-18T06:25:07.507Z,50.30
2018-12-18T06:27:16.035Z,46.33
2018-12-18T06:29:20.136Z,39.60
2018-12-18T06:31:24.335Z,49.57
2018-12-18T06:33:30.784Z,48.27
2018-12-18T06:35:36.674Z,44.43
2018-12-18T06:37:40.564Z,37.53
2018-12-18T06:39:44.464Z,58.07
2018-12-18T06:41:50.487Z,45.57
2018-12-18T06:43:59.003Z,41.33
2018-12-18T06:46:07.748Z,41.03
2018-12-18T06:48:11.953Z,43.47
2018-12-18T06:50:15.761Z,42.13
2018-12-18T06:52:21.704Z,49.77
2018-12-18T06:54:25.573Z,48.13
2018-12-18T06:56:29.246Z,51.60
2018-12-18T06:58:38.133Z,52.97
2018-12-18T07:00:47.913Z,43.17
2018-12-18T07:02:52.157Z,36.67
2018-12-18T07:05:00.576Z,45.07
2018-12-18T07:07:06.765Z,40.07
2018-12-18T07:09:15.562Z,49.93
2018-12-18T07:11:19.328Z,45.80
2018-12-18T07:13:23.197Z,46.67
2018-12-18T07:15:31.978Z,40.70
2018-12-18T07:17:40.916Z,54.87
2018-12-18T07:19:49.756Z,54.17
2018-12-18T07:21:58.668Z,43.00
2018-12-18T07:24:02.848Z,47.90
2018-12-18T07:26:06.952Z,40.70
2018-12-18T07:28:10.911Z,40.77
2018-12-18T07:30:19.465Z,48.10
2018-12-18T07:32:23.429Z,45.60
2018-12-18T07:34:33.257Z,50.77
2018-12-18T07:36:37.916Z,51.23
2018-12-18T07:38:43.704Z,34.87
2018-12-18T07:40:47.688Z,52.20
2018-12-18T07:42:51.656Z,42.70
2018-12-18T07:44:55.660Z,43.97
2018-12-18T07:47:01.432Z,42.13
2018-12-18T07:49:05.187Z,29.37
2018-12-18T07:51:13.920Z,36.23
2018-12-18T07:53:18.027Z,34.00
2018-12-18T07:55:26.635Z,34.87
2018-12-18T07:57:30.764Z,36.77
2018-12-18T07:59:39.494Z,28.50
2018-12-18T08:01:43.487Z,32.67
2018-12-18T08:03:47.402Z,38.60
2018-12-18T08:07:55.514Z,30.50
2018-12-18T08:09:59.608Z,27.07
2018-12-18T08:12:08.312Z,36.23
2018-12-18T08:14:17.125Z,30.00
2018-12-18T08:16:25.960Z,26.20
2018-12-18T08:18:29.828Z,25.87
2018-12-18T08:20:33.704Z,24.83
2018-12-18T08:22:42.664Z,26.97
2018-12-18T08:24:51.539Z,23.00
2018-12-18T08:26:55.459Z,27.23
2018-12-18T08:28:59.301Z,27.27
2018-12-18T08:31:08.933Z,27.07
2018-12-18T08:33:17.924Z,20.13
2018-12-18T08:35:22.012Z,20.53
2018-12-18T08:37:25.971Z,22.60
2018-12-18T08:39:34.805Z,21.00
2018-12-18T08:41:38.771Z,30.10
2018-12-18T08:43:42.666Z,22.70
2018-12-18T08:45:51.334Z,19.17
2018-12-18T08:48:00.260Z,17.77
2018-12-18T08:50:09.346Z,20.10
2018-12-18T08:52:13.353Z,18.70
2018-12-18T08:54:17.223Z,18.80
2018-12-18T08:56:23.121Z,15.90
2018-12-18T08:58:27.217Z,18.73
2018-12-18T09:00:31.004Z,19.10
2018-12-18T09:02:39.784Z,21.23
2018-12-18T09:04:43.631Z,25.90
2018-12-18T09:06:49.591Z,25.83
2018-12-18T09:08:53.800Z,17.17
2018-12-18T09:11:02.583Z,19.17
2018-12-18T09:13:06.647Z,25.33
2018-12-18T09:15:21.003Z,26.40
2018-12-18T09:17:50.842Z,19.30
2018-12-18T09:19:54.537Z,17.10
2018-12-18T09:22:00.586Z,17.30
2018-12-18T09:24:04.424Z,22.53
2018-12-18T09:26:08.396Z,22.63
2018-12-18T09:28:12.466Z,20.97
2018-12-18T09:30:16.362Z,18.13
2018-12-18T09:32:20.454Z,19.13
2018-12-18T09:34:29.184Z,14.47
2018-12-18T09:36:33.207Z,17.93
2018-12-18T09:38:47.425Z,18.63
2018-12-18T09:40:56.742Z,20.80
2018-12-18T09:43:06.384Z,31.97
2018-12-18T09:45:12.565Z,24.37
2018-12-18T09:47:21.311Z,27.43
2018-12-18T09:49:25.284Z,25.87
2018-12-18T09:51:31.260Z,22.33
2018-12-18T09:53:40.032Z,18.63
2018-12-18T09:55:49.100Z,24.17
2018-12-18T09:57:58.383Z,16.43
2018-12-18T10:00:02.149Z,20.60
2018-12-18T10:02:07.936Z,14.90
2018-12-18T10:04:11.852Z,22.43
2018-12-18T10:06:20.704Z,18.43
2018-12-18T10:08:24.553Z,20.67
2018-12-18T10:10:29.535Z,21.10
2018-12-18T10:12:46.035Z,19.13
2018-12-18T10:14:55.291Z,17.70
2018-12-18T10:17:01.293Z,15.53
2018-12-18T10:19:09.979Z,17.50
2018-12-18T10:21:13.959Z,14.60
2018-12-18T10:23:17.921Z,20.77
2018-12-18T10:25:21.944Z,15.53
2018-12-18T10:27:30.657Z,15.60
2018-12-18T10:29:34.970Z,18.87
2018-12-18T10:31:40.788Z,16.13
2018-12-18T10:33:49.598Z,13.20
2018-12-18T10:35:53.542Z,21.70
2018-12-18T10:38:03.116Z,14.30
2018-12-18T10:40:09.130Z,14.10
2018-12-18T10:42:18.064Z,14.77
2018-12-18T10:44:22.279Z,15.00
2018-12-18T10:46:30.833Z,21.70
2018-12-18T10:48:39.739Z,15.50
2018-12-18T10:50:48.922Z,22.50
2018-12-18T10:52:57.339Z,22.67
2018-12-18T10:55:01.888Z,18.20
2018-12-18T10:57:06.504Z,15.00
2018-12-18T10:59:10.616Z,19.30
2018-12-18T11:01:17.696Z,26.53
2018-12-18T11:03:26.337Z,25.43
2018-12-18T11:05:30.786Z,16.20
2018-12-18T11:07:39.889Z,24.40
2018-12-18T11:09:49.414Z,23.47
2018-12-18T11:11:52.971Z,23.53
2018-12-18T11:14:01.815Z,22.37
2018-12-18T11:16:06.544Z,15.67
2018-12-18T11:18:10.677Z,24.00
2018-12-18T11:20:14.645Z,22.13
2018-12-18T11:22:19.283Z,16.97
2018-12-18T11:24:28.283Z,27.47
2018-12-18T11:26:32.644Z,22.20
2018-12-18T11:28:42.495Z,21.03
2018-12-18T11:30:52.117Z,20.50
2018-12-18T11:33:01.789Z,18.90
2018-12-18T11:35:12.024Z,24.77
2018-12-18T11:37:20.949Z,19.33
2018-12-18T11:39:24.619Z,18.60
2018-12-18T11:41:28.572Z,21.60
2018-12-18T11:43:34.704Z,25.57
2018-12-18T11:45:43.271Z,23.13
2018-12-18T11:47:52.387Z,14.83
2018-12-18T11:49:56.446Z,18.63
2018-12-18T11:52:06.201Z,17.23
2018-12-18T11:54:15.995Z,20.50
2018-12-18T11:56:24.352Z,18.70
2018-12-18T11:58:33.328Z,21.93
2018-12-18T12:00:43.077Z,18.20
2018-12-18T12:02:48.081Z,18.10
2018-12-18T12:04:52.846Z,18.20
2018-12-18T12:07:01.862Z,18.57
2018-12-18T12:09:10.607Z,17.07
2018-12-18T12:11:19.504Z,17.77
2018-12-18T12:13:28.501Z,14.10
2018-12-18T12:15:37.416Z,19.13
2018-12-18T12:17:41.493Z,15.63
2018-12-18T12:19:50.188Z,18.10
2018-12-18T12:21:58.816Z,15.27
2018-12-18T12:24:07.849Z,15.77
2018-12-18T12:26:22.103Z,20.03
2018-12-18T12:28:25.565Z,12.63
2018-12-18T12:30:29.617Z,19.63
2018-12-18T12:32:33.341Z,14.37
2018-12-18T12:34:41.885Z,14.80
2018-12-18T12:36:46.065Z,17.47
2018-12-18T12:38:49.964Z,16.33
2018-12-18T12:40:53.661Z,12.97
2018-12-18T12:42:57.301Z,16.57
2018-12-18T12:45:02.153Z,10.90
2018-12-18T12:47:06.013Z,15.67
2018-12-18T12:49:09.696Z,13.43
2018-12-18T12:51:18.435Z,12.20
2018-12-18T12:53:22.407Z,14.77
2018-12-18T12:55:32.105Z,11.90
2018-12-18T12:57:36.436Z,12.07
2018-12-18T12:59:42.199Z,10.73
2018-12-18T13:01:46.113Z,15.57
2018-12-18T13:03:49.992Z,13.13
2018-12-18T13:05:53.930Z,13.07
2018-12-18T13:07:57.998Z,12.73
2018-12-18T13:10:01.898Z,13.83
2018-12-18T13:12:05.810Z,10.70
2018-12-18T13:14:14.376Z,12.40
2018-12-18T13:16:23.106Z,13.70
2018-12-18T13:18:32.870Z,13.63
2018-12-18T13:20:41.903Z,11.33
2018-12-18T13:22:50.720Z,17.37
2018-12-18T13:24:54.612Z,8.23
2018-12-18T13:27:00.284Z,12.17
2018-12-18T13:29:04.047Z,15.77
2018-12-18T13:31:12.744Z,10.43
2018-12-18T13:33:16.601Z,13.17
2018-12-18T13:35:20.496Z,13.30
2018-12-18T13:37:24.295Z,12.03
2018-12-18T13:39:33.012Z,10.27
2018-12-18T13:41:37.208Z,12.47
2018-12-18T13:43:40.899Z,8.83
2018-12-18T13:45:49.304Z,9.50
2018-12-18T13:47:58.318Z,13.50
2018-12-18T13:50:02.313Z,13.03
2018-12-18T13:52:10.947Z,15.97
2018-12-18T13:54:19.941Z,10.50
2018-12-18T13:56:24.100Z,11.93
2018-12-18T13:58:28.095Z,10.60
2018-12-18T14:00:36.744Z,8.17
2018-12-18T14:02:45.472Z,11.87
2018-12-18T14:04:49.495Z,11.70
2018-12-18T14:06:53.399Z,11.23
2018-12-18T14:08:57.362Z,9.57
2018-12-18T14:11:01.321Z,10.33
2018-12-18T14:13:05.441Z,7.60
2018-12-18T14:15:09.553Z,8.30
2018-12-18T14:17:18.008Z,10.83
2018-12-18T14:19:24.104Z,8.70
2018-12-18T14:21:27.882Z,6.70
2018-12-18T14:23:37.472Z,10.97
2018-12-18T14:25:41.686Z,8.73
2018-12-18T14:27:50.453Z,14.20
2018-12-18T14:29:59.181Z,11.40
2018-12-18T14:32:05.087Z,13.53
2018-12-18T14:34:11.002Z,8.33
2018-12-18T14:36:19.688Z,10.20
2018-12-18T14:38:24.132Z,14.47
2018-12-18T14:40:28.232Z,10.70
2018-12-18T14:42:42.825Z,9.00
2018-12-18T14:44:51.516Z,12.87
2018-12-18T14:46:55.631Z,15.67
2018-12-18T14:48:59.924Z,9.37
2018-12-18T14:51:03.922Z,9.80
2018-12-18T14:53:12.449Z,14.80
2018-12-18T14:55:16.621Z,17.40
2018-12-18T14:57:22.621Z,24.00
2018-12-18T14:59:31.285Z,22.80
2018-12-18T15:01:35.093Z,29.83
2018-12-18T15:03:43.708Z,13.93
2018-12-18T15:05:47.749Z,15.37
2018-12-18T15:07:56.712Z,14.13
2018-12-18T15:10:00.820Z,9.40
2018-12-18T15:12:06.759Z,9.77
2018-12-18T15:14:10.580Z,29.70
2018-12-18T15:16:14.361Z,15.47
2018-12-18T15:18:23.046Z,11.93
2018-12-18T15:20:27.279Z,12.33
2018-12-18T15:22:36.840Z,9.83
2018-12-18T15:24:45.719Z,11.47
2018-12-18T15:26:49.813Z,10.80
2018-12-18T15:28:53.594Z,9.00
2018-12-18T15:31:02.205Z,9.90
2018-12-18T15:33:08.176Z,9.90
2018-12-18T15:35:18.044Z,9.57
2018-12-18T15:37:26.690Z,9.57
2018-12-18T15:39:30.783Z,17.73
2018-12-18T15:41:39.384Z,25.77
2018-12-18T15:43:48.147Z,12.27
2018-12-18T15:45:52.066Z,20.00
2018-12-18T15:47:55.917Z,18.23
2018-12-18T15:50:05.480Z,20.63
2018-12-18T15:52:09.668Z,20.63
2018-12-18T15:54:13.533Z,18.33
2018-12-18T15:56:22.181Z,14.67
2018-12-18T15:58:26.096Z,15.47
2018-12-18T16:00:30.026Z,11.07
2018-12-18T16:02:33.932Z,12.43
2018-12-18T16:04:42.521Z,10.10
2018-12-18T16:06:51.467Z,8.80
2018-12-18T16:08:55.461Z,11.67
2018-12-18T16:10:59.354Z,10.87
2018-12-18T16:13:03.165Z,7.60
2018-12-18T16:15:07.864Z,14.73
2018-12-18T16:17:16.908Z,11.07
2018-12-18T16:19:21.328Z,7.87
2018-12-18T16:21:25.012Z,10.50
2018-12-18T16:23:29.056Z,10.00
2018-12-18T16:25:37.772Z,9.67
2018-12-18T16:27:46.652Z,7.60
2018-12-18T16:29:55.664Z,7.60
2018-12-18T16:32:01.648Z,13.03
2018-12-18T16:34:05.612Z,13.20
2018-12-18T16:36:14.747Z,13.73
2018-12-18T16:38:23.564Z,9.60
2018-12-18T16:40:32.392Z,10.30
2018-12-18T16:42:36.287Z,8.43
2018-12-18T16:44:45.058Z,7.50
2018-12-18T16:46:53.849Z,11.43
2018-12-18T16:48:57.852Z,13.93
2018-12-18T16:51:01.708Z,7.97
2018-12-18T16:53:10.272Z,12.53
2018-12-18T16:55:14.281Z,8.93
2018-12-18T16:57:20.356Z,10.10
2018-12-18T16:59:24.147Z,7.77
2018-12-18T17:01:28.160Z,11.00
2018-12-18T17:03:31.970Z,8.93
2018-12-18T17:05:35.963Z,6.97
2018-12-18T17:07:39.941Z,6.80
2018-12-18T17:09:48.841Z,9.67
2018-12-18T17:11:52.844Z,7.90
2018-12-18T17:13:56.694Z,8.63
2018-12-18T17:16:00.583Z,6.80
2018-12-18T17:18:04.643Z,10.13
2018-12-18T17:20:08.609Z,11.10
2018-12-18T17:22:17.329Z,8.93
2018-12-18T17:24:21.104Z,7.10
2018-12-18T17:26:29.645Z,7.57
2018-12-18T17:28:35.599Z,8.20
2018-12-18T17:30:44.220Z,6.60
2018-12-18T17:32:48.417Z,6.87
2018-12-18T17:34:52.304Z,7.93
2018-12-18T17:37:00.943Z,9.10
2018-12-18T17:39:09.752Z,8.47
2018-12-18T17:41:18.536Z,8.03
2018-12-18T17:43:27.567Z,6.40
2018-12-18T17:45:36.218Z,5.77
2018-12-18T17:47:40.208Z,8.40
2018-12-18T17:49:49.090Z,11.47
2018-12-18T17:51:53.186Z,8.93
2018-12-18T17:53:57.247Z,7.63
2018-12-18T17:56:01.231Z,9.83
2018-12-18T17:58:05.118Z,12.87
2018-12-18T18:00:09.013Z,11.17
2018-12-18T18:02:12.821Z,9.17
2018-12-18T18:04:16.919Z,8.27
2018-12-18T18:06:20.883Z,11.97
2018-12-18T18:08:24.868Z,9.17
2018-12-18T18:10:33.564Z,9.50
2018-12-18T18:12:42.612Z,10.23
2018-12-18T18:14:51.523Z,10.33
2018-12-18T18:16:55.499Z,13.23
2018-12-18T18:18:59.458Z,6.73
2018-12-18T18:21:03.462Z,12.37
2018-12-18T18:23:07.107Z,9.93
2018-12-18T18:25:11.074Z,8.63
2018-12-18T18:27:19.707Z,8.10
2018-12-18T18:29:28.552Z,17.00
2018-12-18T18:31:37.493Z,14.13
2018-12-18T18:33:46.386Z,12.73
2018-12-18T18:35:55.148Z,11.20
2018-12-18T18:38:04.220Z,9.63
2018-12-18T18:40:08.555Z,6.77
2018-12-18T18:42:14.352Z,7.87
2018-12-18T18:44:18.063Z,6.67
2018-12-18T18:46:21.925Z,8.13
2018-12-18T18:48:27.907Z,9.43
2018-12-18T18:50:37.455Z,7.80
2018-12-18T18:52:41.629Z,9.53
2018-12-18T18:54:51.231Z,5.70
2018-12-18T18:56:55.495Z,10.87
2018-12-18T18:58:59.436Z,10.47
2018-12-18T19:01:03.496Z,7.93
2018-12-18T19:03:12.016Z,6.97
2018-12-18T19:05:20.800Z,7.67
2018-12-18T19:07:29.622Z,7.53
2018-12-18T19:09:38.409Z,8.67
2018-12-18T19:11:42.486Z,10.17
2018-12-18T19:13:46.252Z,5.23
2018-12-18T19:15:50.234Z,6.57
2018-12-18T19:17:54.182Z,9.57
2018-12-18T19:20:03.510Z,12.40
2018-12-18T19:22:07.107Z,8.83
2018-12-18T19:24:15.778Z,10.33
2018-12-18T19:26:24.461Z,10.87
2018-12-18T19:28:28.328Z,7.13
2018-12-18T19:30:37.084Z,9.37
2018-12-18T19:32:41.181Z,6.93
2018-12-18T19:34:45.039Z,11.13
2018-12-18T19:36:49.256Z,6.57
2018-12-18T19:38:57.836Z,6.23
2018-12-18T19:41:01.613Z,7.83
2018-12-18T19:43:05.472Z,13.40
2018-12-18T19:45:09.684Z,11.57
2018-12-18T19:47:18.254Z,13.00
2018-12-18T19:49:27.082Z,8.60
2018-12-18T19:51:31.095Z,10.53
2018-12-18T19:53:34.860Z,5.70
2018-12-18T19:55:38.812Z,11.70
2018-12-18T19:57:42.924Z,8.73
2018-12-18T19:59:46.768Z,7.30
2018-12-18T20:01:50.386Z,7.17
2018-12-18T20:03:59.138Z,4.83
2018-12-18T20:06:03.149Z,10.33
2018-12-18T20:08:11.890Z,11.40
2018-12-18T20:10:20.886Z,9.30
2018-12-18T20:12:27.055Z,8.07
2018-12-18T20:14:35.859Z,10.93
2018-12-18T20:16:45.543Z,9.23
2018-12-18T20:18:54.548Z,7.07
2018-12-18T20:21:03.580Z,9.00
2018-12-18T20:23:12.288Z,9.20
2018-12-18T20:25:16.394Z,9.37
2018-12-18T20:27:25.110Z,11.63
2018-12-18T20:29:31.415Z,9.27
2018-12-18T20:31:34.956Z,13.90
2018-12-18T20:33:43.580Z,11.53
2018-12-18T20:35:47.779Z,8.73
2018-12-18T20:37:56.330Z,8.90
2018-12-18T20:40:06.633Z,11.10
2018-12-18T20:42:15.090Z,10.80
2018-12-18T20:44:19.216Z,14.37
2018-12-18T20:46:22.919Z,9.70
2018-12-18T20:48:27.008Z,12.43
2018-12-18T20:50:30.803Z,12.63
2018-12-18T20:52:40.503Z,12.20
2018-12-18T20:54:49.244Z,19.63
2018-12-18T20:56:53.302Z,17.17
2018-12-18T20:58:57.088Z,21.13
2018-12-18T21:01:01.055Z,18.37
2018-12-18T21:03:09.530Z,14.60
2018-12-18T21:05:18.471Z,17.60
2018-12-18T21:07:22.552Z,23.53
2018-12-18T21:09:26.522Z,12.93
2018-12-18T21:11:30.309Z,17.20
2018-12-18T21:13:34.105Z,16.10
2018-12-18T21:15:38.189Z,16.47
2018-12-18T21:17:42.108Z,18.13
2018-12-18T21:19:48.228Z,13.20
2018-12-18T21:21:56.988Z,12.03
2018-12-18T21:24:01.064Z,17.57
2018-12-18T21:26:05.060Z,12.90
2018-12-18T21:28:09.088Z,13.67
2018-12-18T21:30:12.859Z,9.47
2018-12-18T21:32:21.554Z,11.67
2018-12-18T21:34:30.435Z,12.33
2018-12-18T21:36:34.432Z,8.43
2018-12-18T21:38:38.212Z,7.20
2018-12-18T21:40:42.168Z,7.90
2018-12-18T21:42:46.095Z,10.37
2018-12-18T21:44:50.277Z,10.03
2018-12-18T21:46:54.088Z,8.63
2018-12-18T21:48:57.864Z,9.27
2018-12-18T21:51:03.841Z,9.60
2018-12-18T21:53:07.796Z,10.20
2018-12-18T21:55:11.787Z,11.90
2018-12-18T21:57:20.518Z,11.10
2018-12-18T21:59:29.489Z,7.50
2018-12-18T22:01:38.344Z,7.07
2018-12-18T22:03:42.415Z,7.20
2018-12-18T22:05:46.191Z,8.50
2018-12-18T22:07:54.925Z,7.40
2018-12-18T22:09:59.029Z,6.20
2018-12-18T22:12:05.212Z,9.13
2018-12-18T22:14:13.824Z,8.57
2018-12-18T22:16:18.071Z,7.30
2018-12-18T22:18:26.748Z,6.60
2018-12-18T22:20:36.831Z,6.63
2018-12-18T22:22:45.872Z,6.93
2018-12-18T22:24:54.748Z,7.50
2018-12-18T22:27:00.823Z,6.27
2018-12-18T22:29:09.510Z,9.90
2018-12-18T22:31:18.265Z,7.17
2018-12-18T22:33:22.247Z,6.90
2018-12-18T22:35:26.145Z,5.67
2018-12-18T22:37:29.948Z,6.27
2018-12-18T22:39:33.615Z,5.10
2018-12-18T22:41:37.537Z,8.40
2018-12-18T22:43:46.216Z,6.20
2018-12-18T22:45:55.210Z,8.60
2018-12-18T22:48:01.140Z,8.03
2018-12-18T22:50:09.840Z,11.07
2018-12-18T22:52:18.700Z,6.27
2018-12-18T22:54:27.585Z,11.60
2018-12-18T22:56:31.729Z,7.43
2018-12-18T22:58:40.245Z,5.73
2018-12-18T23:00:52.816Z,9.03
2018-12-18T23:03:01.313Z,5.37
2018-12-18T23:05:05.599Z,6.13
2018-12-18T23:07:09.355Z,7.97
2018-12-18T23:09:14.332Z,6.20
2018-12-18T23:11:22.799Z,6.27
2018-12-18T23:13:26.992Z,6.77
2018-12-18T23:15:36.033Z,9.97
2018-12-18T23:17:39.997Z,5.97
2018-12-18T23:19:49.529Z,5.33
2018-12-18T23:21:55.624Z,5.77
2018-12-18T23:23:59.395Z,6.37
2018-12-18T23:26:03.369Z,7.70
2018-12-18T23:28:07.327Z,6.23
2018-12-18T23:30:11.299Z,5.43
2018-12-18T23:32:20.088Z,6.73
2018-12-18T23:34:24.445Z,7.27
2018-12-18T23:36:33.156Z,8.20
2018-12-18T23:38:37.261Z,5.87
2018-12-18T23:40:45.908Z,5.23
2018-12-18T23:42:49.923Z,5.40
2018-12-18T23:44:53.727Z,6.97
2018-12-18T23:46:59.828Z,7.07
2018-12-18T23:49:03.498Z,5.87
2018-12-18T23:51:12.240Z,5.43
2018-12-18T23:53:21.112Z,6.37
2018-12-18T23:55:25.166Z,4.97
2018-12-18T23:57:29.116Z,4.27
2018-12-18T23:59:38.463Z,7.20
